Time;durP1;ratioP1;P1;durP2;ratioP2;P2;SDS_P1;SDS_P2;PMS_P1;PMS_P2;Temp;Humidity;BMP_temperature;BMP_pressure;BME280_temperature;BME280_humidity;BME280_pressure;Samples;Min_cycle;Max_cycle;Signal;HPM_P1;HPM_P2
2022/11/11 00:00:49;;;;;;;21.60;8.80;;;;;;;;;;5000746;28;20062;-79
2022/11/11 00:03:15;;;;;;;20.92;8.48;;;;;;;;;;5007473;28;20050;-80
2022/11/11 00:05:49;;;;;;;14.50;7.82;;;;;;;;;;5009313;28;20060;-78
2022/11/11 00:08:15;;;;;;;17.17;8.15;;;;;;;;;;5025699;28;20061;-78
2022/11/11 00:10:42;;;;;;;18.75;8.63;;;;;;;;;;5024534;28;20062;-77
2022/11/11 00:13:08;;;;;;;25.50;9.00;;;;;;;;;;5007247;28;20054;-80
2022/11/11 00:15:38;;;;;;;24.60;9.93;;;;;;;;;;5007389;28;20054;-78
2022/11/11 00:26:20;;;;;;;21.20;9.93;;;;;;;;;;5039708;28;20059;-78
2022/11/11 00:29:06;;;;;;;21.83;10.40;;;;;;;;;;5037429;28;20046;-79
2022/11/11 00:31:34;;;;;;;23.85;9.85;;;;;;;;;;5017315;28;20148;-78
2022/11/11 00:34:00;;;;;;;29.10;10.55;;;;;;;;;;5024475;28;20335;-78
2022/11/11 00:36:27;;;;;;;22.73;10.73;;;;;;;;;;5014372;28;20053;-77
2022/11/11 00:38:54;;;;;;;23.23;11.25;;;;;;;;;;5007269;28;20062;-77
2022/11/11 00:41:22;;;;;;;19.48;10.48;;;;;;;;;;5007480;28;20105;-79
2022/11/11 00:43:48;;;;;;;23.20;11.20;;;;;;;;;;5024098;28;20054;-78
2022/11/11 00:51:45;;;;;;;26.27;11.90;;;;;;;;;;5022855;28;20081;-79
2022/11/11 00:54:11;;;;;;;24.73;12.30;;;;;;;;;;5005216;28;20057;-76
2022/11/11 00:56:38;;;;;;;28.02;13.85;;;;;;;;;;5004851;28;20133;-77
2022/11/11 00:59:05;;;;;;;25.55;13.23;;;;;;;;;;5015611;28;20113;-80
2022/11/11 01:01:32;;;;;;;26.52;12.55;;;;;;;;;;5014978;28;20508;-78
2022/11/11 01:03:58;;;;;;;32.22;13.88;;;;;;;;;;5024300;28;20988;-79
2022/11/11 01:06:25;;;;;;;29.00;14.05;;;;;;;;;;5007275;28;20057;-80
2022/11/11 01:08:52;;;;;;;28.35;13.70;;;;;;;;;;5007359;28;20049;-77
2022/11/11 01:11:19;;;;;;;27.05;13.57;;;;;;;;;;5027593;28;20110;-76
2022/11/11 01:13:46;;;;;;;27.85;14.10;;;;;;;;;;5027208;28;20053;-80
2022/11/11 01:16:13;;;;;;;28.92;14.35;;;;;;;;;;5027751;28;20445;-78
2022/11/11 01:18:40;;;;;;;28.15;15.13;;;;;;;;;;5027267;28;20060;-78
2022/11/11 01:21:06;;;;;;;31.55;14.98;;;;;;;;;;5026937;28;20534;-78
2022/11/11 01:23:34;;;;;;;38.10;15.13;;;;;;;;;;5009749;28;21093;-78
2022/11/11 01:26:02;;;;;;;28.40;14.38;;;;;;;;;;5027976;28;20061;-77
2022/11/11 01:28:29;;;;;;;31.88;15.05;;;;;;;;;;5023010;28;20141;-79
2022/11/11 01:31:06;;;;;;;30.70;15.13;;;;;;;;;;5026322;28;20527;-77
2022/11/11 01:33:33;;;;;;;30.00;15.60;;;;;;;;;;5023218;28;20058;-78
2022/11/11 01:36:07;;;;;;;30.63;15.40;;;;;;;;;;5028208;28;20060;-78
2022/11/11 01:38:34;;;;;;;29.33;14.63;;;;;;;;;;5025843;28;20994;-77
2022/11/11 01:41:31;;;;;;;37.10;16.02;;;;;;;;;;5026729;28;20444;-78
2022/11/11 01:43:47;;;;;;;30.98;16.02;;;;;;;;;;5024834;28;20089;-80
2022/11/11 01:46:20;;;;;;;30.80;15.82;;;;;;;;;;5025290;28;20065;-79
2022/11/11 01:51:56;;;;;;;33.50;15.85;;;;;;;;;;5027291;28;20562;-79
2022/11/11 01:54:23;;;;;;;36.08;16.67;;;;;;;;;;4996689;28;20519;-78
2022/11/11 01:56:57;;;;;;;33.17;16.17;;;;;;;;;;4989852;28;20054;-76
2022/11/11 01:59:23;;;;;;;32.33;16.77;;;;;;;;;;5001501;28;20493;-78
2022/11/11 02:01:50;;;;;;;36.20;16.45;;;;;;;;;;5018295;28;20527;-80
2022/11/11 02:07:05;;;;;;;35.13;18.10;;;;;;;;;;5030957;28;20065;-79
2022/11/11 02:09:31;;;;;;;35.80;17.55;;;;;;;;;;5042546;28;20065;-79
2022/11/11 02:14:48;;;;;;;35.50;17.38;;;;;;;;;;4984384;28;20058;-80
2022/11/11 02:17:15;;;;;;;38.85;18.00;;;;;;;;;;4989435;28;20061;-80
2022/11/11 02:19:48;;;;;;;35.33;16.73;;;;;;;;;;5008780;28;20539;-78
2022/11/11 02:22:35;;;;;;;33.47;17.10;;;;;;;;;;5025130;28;20586;-80
2022/11/11 02:25:02;;;;;;;32.22;16.40;;;;;;;;;;5010918;28;20509;-78
2022/11/11 02:27:30;;;;;;;39.65;17.58;;;;;;;;;;5019388;28;20058;-80
2022/11/11 02:29:58;;;;;;;36.30;17.33;;;;;;;;;;5026694;28;20145;-79
2022/11/11 02:32:24;;;;;;;34.65;16.90;;;;;;;;;;5027872;28;20045;-79
2022/11/11 02:34:51;;;;;;;37.65;16.63;;;;;;;;;;5009537;28;20062;-78
2022/11/11 02:37:23;;;;;;;35.25;16.27;;;;;;;;;;5028185;28;20054;-79
2022/11/11 02:39:51;;;;;;;36.83;18.08;;;;;;;;;;5027249;28;20141;-79
2022/11/11 02:42:34;;;;;;;34.75;17.40;;;;;;;;;;5025806;28;20062;-79
2022/11/11 02:45:01;;;;;;;39.65;18.98;;;;;;;;;;5009632;28;20053;-79
2022/11/11 02:47:27;;;;;;;41.30;18.30;;;;;;;;;;5027908;28;20057;-79
2022/11/11 02:49:53;;;;;;;37.00;17.65;;;;;;;;;;5007671;28;20078;-81
2022/11/11 02:52:20;;;;;;;35.90;17.88;;;;;;;;;;5028405;28;20062;-76
2022/11/11 02:54:48;;;;;;;35.40;17.15;;;;;;;;;;5005272;28;20054;-80
2022/11/11 02:57:14;;;;;;;41.10;18.38;;;;;;;;;;5006658;28;20054;-77
2022/11/11 02:59:41;;;;;;;37.03;17.33;;;;;;;;;;5023585;28;20545;-80
2022/11/11 03:02:07;;;;;;;37.10;17.85;;;;;;;;;;5026579;28;20054;-78
2022/11/11 03:04:36;;;;;;;41.08;17.67;;;;;;;;;;5025381;28;20137;-79
2022/11/11 03:07:03;;;;;;;37.90;18.00;;;;;;;;;;5004486;28;20050;-77
2022/11/11 03:09:29;;;;;;;37.03;16.52;;;;;;;;;;5006523;28;20513;-80
2022/11/11 03:11:56;;;;;;;37.58;17.60;;;;;;;;;;5006390;28;20572;-78
2022/11/11 03:14:23;;;;;;;33.55;16.05;;;;;;;;;;5025651;28;20089;-77
2022/11/11 03:19:34;;;;;;;33.47;16.15;;;;;;;;;;5030703;28;20526;-79
2022/11/11 03:22:02;;;;;;;37.00;17.02;;;;;;;;;;5025309;28;20050;-79
2022/11/11 03:27:33;;;;;;;37.25;17.30;;;;;;;;;;5016409;28;20528;-79
2022/11/11 03:29:59;;;;;;;40.47;16.05;;;;;;;;;;5018061;28;20065;-78
2022/11/11 03:32:25;;;;;;;37.55;15.68;;;;;;;;;;5014324;28;21034;-77
2022/11/11 03:34:52;;;;;;;35.25;15.10;;;;;;;;;;5025886;28;20535;-78
2022/11/11 03:40:03;;;;;;;35.13;15.48;;;;;;;;;;5022834;28;20509;-78
2022/11/11 03:42:30;;;;;;;31.73;14.57;;;;;;;;;;5024427;28;20053;-79
2022/11/11 03:44:56;;;;;;;31.08;15.57;;;;;;;;;;5024946;28;20536;-80
2022/11/11 03:47:22;;;;;;;31.55;14.77;;;;;;;;;;5024821;28;20058;-78
2022/11/11 03:49:48;;;;;;;35.80;16.08;;;;;;;;;;5025365;28;20606;-79
2022/11/11 03:52:15;;;;;;;33.30;14.80;;;;;;;;;;5004600;28;20053;-78
2022/11/11 03:54:41;;;;;;;38.28;14.93;;;;;;;;;;5020957;28;20066;-79
2022/11/11 03:59:53;;;;;;;33.75;14.90;;;;;;;;;;5025625;28;20532;-79
2022/11/11 04:10:35;;;;;;;31.80;13.93;;;;;;;;;;5025081;28;20160;-80
2022/11/11 04:16:07;;;;;;;28.40;12.98;;;;;;;;;;5024382;28;20068;-79
2022/11/11 04:26:53;;;;;;;27.58;12.60;;;;;;;;;;5027308;28;20060;-77
2022/11/11 04:29:28;;;;;;;25.58;13.13;;;;;;;;;;5008518;28;20065;-81
2022/11/11 04:34:42;;;;;;;28.83;13.68;;;;;;;;;;5046335;28;20045;-80
2022/11/11 04:37:08;;;;;;;28.73;12.68;;;;;;;;;;5041027;28;20049;-78
2022/11/11 04:42:19;;;;;;;28.58;13.13;;;;;;;;;;5026193;28;20050;-77
2022/11/11 04:47:31;;;;;;;29.85;13.38;;;;;;;;;;5026813;28;20057;-81
2022/11/11 04:49:57;;;;;;;28.25;12.82;;;;;;;;;;5008825;28;20038;-77
2022/11/11 04:52:31;;;;;;;34.97;13.48;;;;;;;;;;5025701;28;20058;-80
2022/11/11 04:57:47;;;;;;;25.48;12.75;;;;;;;;;;5032737;28;20057;-80
2022/11/11 05:00:17;;;;;;;27.13;13.63;;;;;;;;;;5026726;28;20739;-79
2022/11/11 05:08:54;;;;;;;28.50;14.07;;;;;;;;;;5026489;28;20085;-80
2022/11/11 05:11:03;;;;;;;27.77;13.63;;;;;;;;;;5025918;28;20895;-81
2022/11/11 05:21:56;;;;;;;29.85;13.45;;;;;;;;;;5025028;28;20054;-79
2022/11/11 05:27:07;;;;;;;32.13;13.07;;;;;;;;;;5023157;28;20089;-79
2022/11/11 05:29:33;;;;;;;26.95;12.63;;;;;;;;;;5013725;28;21227;-77
2022/11/11 05:32:00;;;;;;;28.40;13.40;;;;;;;;;;5007208;28;20594;-79
2022/11/11 05:34:26;;;;;;;31.30;12.90;;;;;;;;;;5025513;28;20069;-79
2022/11/11 05:36:53;;;;;;;26.17;11.77;;;;;;;;;;5007260;28;20046;-78
2022/11/11 05:39:19;;;;;;;22.98;12.38;;;;;;;;;;5007417;28;20583;-81
2022/11/11 05:41:45;;;;;;;32.05;12.88;;;;;;;;;;5023965;28;20050;-80
2022/11/11 05:44:12;;;;;;;29.00;13.50;;;;;;;;;;5024334;28;20334;-79
2022/11/11 05:46:38;;;;;;;29.88;12.43;;;;;;;;;;5005217;28;20088;-79
2022/11/11 05:49:16;;;;;;;27.52;13.05;;;;;;;;;;5004932;28;20513;-78
2022/11/11 05:51:43;;;;;;;33.38;13.13;;;;;;;;;;5004669;28;20058;-78
2022/11/11 05:54:10;;;;;;;25.88;12.52;;;;;;;;;;5003569;28;20054;-81
2022/11/11 05:56:37;;;;;;;27.55;12.65;;;;;;;;;;5010490;28;20058;-78
2022/11/11 05:59:03;;;;;;;24.17;12.18;;;;;;;;;;5008889;28;20064;-77
2022/11/11 06:01:30;;;;;;;26.73;12.13;;;;;;;;;;5008483;28;20061;-78
2022/11/11 06:03:57;;;;;;;31.42;13.20;;;;;;;;;;5026991;28;20054;-80
2022/11/11 06:06:23;;;;;;;26.80;12.38;;;;;;;;;;5027288;28;20049;-80
2022/11/11 06:08:49;;;;;;;30.30;12.63;;;;;;;;;;5009810;28;20512;-80
2022/11/11 06:11:15;;;;;;;28.65;12.40;;;;;;;;;;5007647;28;20050;-81
2022/11/11 06:13:42;;;;;;;33.88;12.73;;;;;;;;;;5008697;28;20058;-80
2022/11/11 06:16:08;;;;;;;25.77;12.13;;;;;;;;;;5022327;28;20158;-80
2022/11/11 06:18:35;;;;;;;25.05;11.93;;;;;;;;;;5006741;28;20057;-81
2022/11/11 06:21:01;;;;;;;25.15;12.23;;;;;;;;;;5009901;28;20501;-80
2022/11/11 06:23:28;;;;;;;28.92;12.40;;;;;;;;;;5006827;28;20149;-80
2022/11/11 06:26:12;;;;;;;28.38;13.05;;;;;;;;;;5009265;28;20582;-80
2022/11/11 06:28:39;;;;;;;30.80;13.23;;;;;;;;;;5005181;28;20317;-80
2022/11/11 06:31:06;;;;;;;29.27;12.82;;;;;;;;;;5020135;28;20160;-80
2022/11/11 06:33:34;;;;;;;27.48;11.98;;;;;;;;;;5027884;28;20058;-79
2022/11/11 06:36:00;;;;;;;30.90;13.35;;;;;;;;;;5009889;28;20444;-80
2022/11/11 06:38:27;;;;;;;30.50;13.95;;;;;;;;;;5019956;28;20064;-80
2022/11/11 06:40:53;;;;;;;31.85;13.02;;;;;;;;;;5026632;28;20054;-79
2022/11/11 06:43:20;;;;;;;31.33;13.18;;;;;;;;;;5009817;28;20057;-80
2022/11/11 06:45:50;;;;;;;26.02;12.32;;;;;;;;;;5014582;28;20077;-80
2022/11/11 06:48:16;;;;;;;25.10;12.13;;;;;;;;;;5018309;28;20057;-80
2022/11/11 06:50:43;;;;;;;29.60;12.18;;;;;;;;;;5016723;28;20053;-80
2022/11/11 06:53:10;;;;;;;27.80;12.00;;;;;;;;;;5009966;28;20069;-81
2022/11/11 06:55:37;;;;;;;29.13;13.13;;;;;;;;;;5004489;28;20062;-80
2022/11/11 06:58:07;;;;;;;25.33;11.82;;;;;;;;;;5008935;28;20061;-80
2022/11/11 07:00:34;;;;;;;25.83;11.93;;;;;;;;;;5014591;28;20058;-80
2022/11/11 07:03:01;;;;;;;26.00;11.48;;;;;;;;;;5028088;28;20058;-80
2022/11/11 07:05:28;;;;;;;26.23;12.68;;;;;;;;;;5009530;28;20073;-80
2022/11/11 07:07:54;;;;;;;26.10;12.27;;;;;;;;;;5027510;28;20057;-80
2022/11/11 07:10:21;;;;;;;28.40;11.70;;;;;;;;;;5009895;28;20058;-81
2022/11/11 07:12:47;;;;;;;32.90;12.15;;;;;;;;;;5009851;28;20433;-78
2022/11/11 07:15:13;;;;;;;25.45;11.95;;;;;;;;;;5021300;28;20513;-78
2022/11/11 07:17:40;;;;;;;25.73;11.52;;;;;;;;;;5007244;28;20414;-79
2022/11/11 07:20:07;;;;;;;26.75;12.45;;;;;;;;;;5013324;28;20057;-79
2022/11/11 07:22:36;;;;;;;29.17;12.15;;;;;;;;;;5005855;28;20061;-79
2022/11/11 07:25:03;;;;;;;25.90;11.45;;;;;;;;;;5017083;28;20910;-79
2022/11/11 07:27:30;;;;;;;28.63;12.00;;;;;;;;;;5026326;28;20058;-78
2022/11/11 07:29:56;;;;;;;24.58;11.80;;;;;;;;;;5004727;28;20061;-80
2022/11/11 07:32:24;;;;;;;25.63;12.23;;;;;;;;;;5023898;28;20516;-79
2022/11/11 07:34:50;;;;;;;27.73;13.32;;;;;;;;;;5020321;28;20054;-79
2022/11/11 07:37:16;;;;;;;29.88;12.80;;;;;;;;;;5005720;28;20084;-78
2022/11/11 07:39:43;;;;;;;30.25;12.18;;;;;;;;;;5024379;28;20053;-78
2022/11/11 07:42:09;;;;;;;26.80;11.27;;;;;;;;;;5024106;28;20127;-78
2022/11/11 07:44:55;;;;;;;26.45;11.70;;;;;;;;;;5009565;28;20112;-78
2022/11/11 07:47:21;;;;;;;28.65;11.25;;;;;;;;;;5024219;28;20089;-78
2022/11/11 07:49:48;;;;;;;23.17;10.50;;;;;;;;;;5022860;28;20061;-77
2022/11/11 07:52:14;;;;;;;23.90;11.77;;;;;;;;;;5007526;28;20058;-79
2022/11/11 07:54:40;;;;;;;25.63;11.00;;;;;;;;;;5006443;28;20050;-79
2022/11/11 07:57:06;;;;;;;24.58;11.02;;;;;;;;;;5004919;28;20049;-79
2022/11/11 07:59:33;;;;;;;26.15;11.00;;;;;;;;;;5020201;28;20050;-78
2022/11/11 08:02:00;;;;;;;23.67;11.63;;;;;;;;;;4999198;28;20057;-79
2022/11/11 08:04:26;;;;;;;22.52;10.68;;;;;;;;;;5021406;28;20053;-79
2022/11/11 08:06:52;;;;;;;24.70;11.52;;;;;;;;;;5025957;28;20060;-78
2022/11/11 08:09:19;;;;;;;25.98;12.38;;;;;;;;;;5004566;28;20058;-79
2022/11/11 08:14:35;;;;;;;25.10;10.45;;;;;;;;;;5023299;28;46041;-78
2022/11/11 08:17:01;;;;;;;25.70;11.13;;;;;;;;;;5020170;28;20046;-79
2022/11/11 08:19:27;;;;;;;25.92;10.27;;;;;;;;;;5005836;28;20050;-78
2022/11/11 08:21:54;;;;;;;24.55;11.05;;;;;;;;;;5025325;28;20101;-79
2022/11/11 08:24:20;;;;;;;23.92;11.00;;;;;;;;;;5023545;28;20058;-79
2022/11/11 08:27:06;;;;;;;25.73;11.55;;;;;;;;;;5007957;28;20567;-77
2022/11/11 08:29:33;;;;;;;24.75;10.73;;;;;;;;;;5024036;28;20080;-79
2022/11/11 08:31:59;;;;;;;22.17;11.07;;;;;;;;;;5026498;28;20061;-79
2022/11/11 08:34:25;;;;;;;24.92;11.23;;;;;;;;;;5007422;28;20524;-78
2022/11/11 08:36:51;;;;;;;23.10;10.75;;;;;;;;;;4999556;28;20060;-79
2022/11/11 08:39:18;;;;;;;22.23;10.98;;;;;;;;;;5024797;28;20540;-77
2022/11/11 08:41:44;;;;;;;22.90;10.73;;;;;;;;;;5022924;28;20057;-78
2022/11/11 08:44:10;;;;;;;21.67;10.65;;;;;;;;;;5022955;28;20876;-78
2022/11/11 08:46:37;;;;;;;22.02;10.85;;;;;;;;;;5023495;28;20065;-79
2022/11/11 08:49:03;;;;;;;23.25;10.65;;;;;;;;;;5022607;28;20142;-79
2022/11/11 08:51:29;;;;;;;19.70;9.95;;;;;;;;;;5023378;28;20053;-79
2022/11/11 08:54:07;;;;;;;21.25;9.93;;;;;;;;;;5022588;28;20069;-78
2022/11/11 08:56:33;;;;;;;20.58;10.13;;;;;;;;;;5021603;28;20050;-80
2022/11/11 08:58:59;;;;;;;23.75;9.90;;;;;;;;;;5001963;28;20057;-79
2022/11/11 09:01:26;;;;;;;24.02;9.52;;;;;;;;;;5012157;28;20050;-78
2022/11/11 09:03:52;;;;;;;19.45;9.52;;;;;;;;;;5019671;28;20104;-78
2022/11/11 09:06:19;;;;;;;20.70;10.23;;;;;;;;;;4986867;28;20069;-78
2022/11/11 09:08:45;;;;;;;21.70;9.90;;;;;;;;;;4992534;28;20054;-79
2022/11/11 09:11:12;;;;;;;20.27;9.57;;;;;;;;;;5024863;28;20069;-78
2022/11/11 09:13:39;;;;;;;18.52;9.52;;;;;;;;;;5023540;28;20069;-78
2022/11/11 09:16:06;;;;;;;21.30;9.70;;;;;;;;;;5006395;28;20117;-78
2022/11/11 09:18:32;;;;;;;22.98;9.93;;;;;;;;;;5006359;28;20053;-78
2022/11/11 09:21:02;;;;;;;21.02;10.40;;;;;;;;;;5006956;28;20105;-79
2022/11/11 09:23:28;;;;;;;19.40;10.20;;;;;;;;;;5001842;28;20068;-78
2022/11/11 09:25:56;;;;;;;23.40;9.77;;;;;;;;;;4999822;28;20054;-79
2022/11/11 09:28:23;;;;;;;21.58;10.40;;;;;;;;;;5005937;28;20054;-78
2022/11/11 09:30:49;;;;;;;20.02;9.90;;;;;;;;;;5026090;28;20675;-79
2022/11/11 09:33:17;;;;;;;20.58;10.20;;;;;;;;;;5009982;28;20058;-79
2022/11/11 09:35:43;;;;;;;19.73;9.85;;;;;;;;;;5027693;28;20528;-78
2022/11/11 09:38:09;;;;;;;18.58;9.48;;;;;;;;;;5007989;28;20058;-79
2022/11/11 09:40:42;;;;;;;22.75;9.75;;;;;;;;;;5028815;28;20265;-79
2022/11/11 09:43:19;;;;;;;19.48;9.38;;;;;;;;;;5005007;28;20054;-78
2022/11/11 09:45:51;;;;;;;20.58;9.20;;;;;;;;;;5009709;28;20050;-79
2022/11/11 09:48:30;;;;;;;20.10;10.20;;;;;;;;;;5008061;28;20144;-79
2022/11/11 09:50:57;;;;;;;24.85;10.13;;;;;;;;;;5020640;28;20054;-80
2022/11/11 09:53:29;;;;;;;20.30;9.82;;;;;;;;;;5003584;28;20060;-79
2022/11/11 09:56:07;;;;;;;18.60;10.07;;;;;;;;;;5025875;28;20068;-80
2022/11/11 09:59:01;;;;;;;19.42;9.25;;;;;;;;;;5007918;28;20053;-80
2022/11/11 10:01:30;;;;;;;18.55;8.63;;;;;;;;;;5009939;28;20054;-78
2022/11/11 10:04:00;;;;;;;15.88;9.10;;;;;;;;;;5007316;28;20085;-79
2022/11/11 10:06:27;;;;;;;;;;;;;;;;;;5023611;28;20065;-79
2022/11/11 10:09:01;;;;;;;16.42;8.55;;;;;;;;;;5006023;28;48486;-78
2022/11/11 10:11:30;;;;;;;17.90;8.90;;;;;;;;;;5009233;28;20058;-79
2022/11/11 10:13:56;;;;;;;17.83;9.02;;;;;;;;;;4990512;28;20063;-80
2022/11/11 10:16:23;;;;;;;18.60;8.95;;;;;;;;;;5004585;28;20069;-79
2022/11/11 10:18:52;;;;;;;17.70;9.15;;;;;;;;;;5009044;28;20046;-79
2022/11/11 10:21:23;;;;;;;20.05;9.00;;;;;;;;;;5026950;28;20084;-79
2022/11/11 10:23:54;;;;;;;16.92;8.98;;;;;;;;;;5010392;28;20050;-78
2022/11/11 10:26:28;;;;;;;20.25;9.15;;;;;;;;;;5009412;28;20060;-79
2022/11/11 10:28:56;;;;;;;25.23;10.60;;;;;;;;;;5008215;28;20526;-79
2022/11/11 10:31:23;;;;;;;17.13;9.38;;;;;;;;;;5023734;28;20058;-79
2022/11/11 10:33:58;;;;;;;19.40;9.93;;;;;;;;;;5024328;28;20057;-79
2022/11/11 10:36:25;;;;;;;18.33;9.73;;;;;;;;;;5007618;28;20057;-79
2022/11/11 10:38:55;;;;;;;22.42;9.30;;;;;;;;;;5024108;28;20057;-79
2022/11/11 10:41:30;;;;;;;19.20;9.57;;;;;;;;;;5021190;28;20046;-80
2022/11/11 10:43:56;;;;;;;18.73;10.35;;;;;;;;;;5006821;28;20045;-80
2022/11/11 10:46:29;;;;;;;19.77;10.57;;;;;;;;;;5007227;28;20923;-83
2022/11/11 10:49:11;;;;;;;16.88;9.82;;;;;;;;;;5028159;28;20057;-81
2022/11/11 10:51:57;;;;;;;19.83;10.55;;;;;;;;;;5009039;28;20580;-79
2022/11/11 10:54:27;;;;;;;20.58;9.70;;;;;;;;;;4977755;28;20061;-79
2022/11/11 10:56:57;;;;;;;18.83;10.02;;;;;;;;;;5010413;28;20136;-79
2022/11/11 10:59:24;;;;;;;;;;;;;;;;;;5004910;28;20061;-80
2022/11/11 11:01:56;;;;;;;16.60;8.90;;;;;;;;;;5027389;28;44025;-79
2022/11/11 11:04:30;;;;;;;19.45;9.88;;;;;;;;;;5011453;28;20579;-79
2022/11/11 11:06:58;;;;;;;18.95;10.55;;;;;;;;;;5022303;28;20064;-79
2022/11/11 11:09:43;;;;;;;21.63;10.95;;;;;;;;;;5027972;28;20462;-79
2022/11/11 11:12:14;;;;;;;19.70;10.52;;;;;;;;;;5009472;28;20610;-78
2022/11/11 11:14:42;;;;;;;22.52;10.07;;;;;;;;;;5029156;28;20065;-78
2022/11/11 11:17:12;;;;;;;20.55;10.30;;;;;;;;;;5007130;28;20076;-79
2022/11/11 11:19:38;;;;;;;22.63;11.52;;;;;;;;;;5009759;28;20064;-78
2022/11/11 11:22:05;;;;;;;22.92;11.88;;;;;;;;;;5025715;28;20138;-78
2022/11/11 11:24:32;;;;;;;20.25;10.63;;;;;;;;;;5026423;28;20061;-78
2022/11/11 11:27:00;;;;;;;18.10;10.45;;;;;;;;;;5026736;28;20057;-78
2022/11/11 11:29:31;;;;;;;19.13;10.55;;;;;;;;;;5026485;28;20054;-78
2022/11/11 11:32:22;;;;;;;19.23;10.93;;;;;;;;;;5027725;28;20046;-78
2022/11/11 11:34:53;;;;;;;19.65;10.90;;;;;;;;;;5000644;28;20045;-79
2022/11/11 11:37:20;;;;;;;17.33;10.27;;;;;;;;;;5027452;28;20049;-79
2022/11/11 11:39:47;;;;;;;20.30;10.90;;;;;;;;;;5007350;28;20053;-79
2022/11/11 11:42:27;;;;;;;18.58;11.00;;;;;;;;;;5027077;28;20058;-78
2022/11/11 11:44:53;;;;;;;16.40;9.52;;;;;;;;;;5011714;28;20060;-79
2022/11/11 11:47:31;;;;;;;18.00;10.38;;;;;;;;;;5008743;28;20092;-79
2022/11/11 11:50:16;;;;;;;20.45;9.98;;;;;;;;;;5009209;28;20546;-79
2022/11/11 11:53:10;;;;;;;18.25;10.57;;;;;;;;;;5007113;28;20099;-79
2022/11/11 11:55:41;;;;;;;19.67;9.90;;;;;;;;;;5023066;28;20886;-79
2022/11/11 11:58:13;;;;;;;16.80;9.95;;;;;;;;;;5027070;28;20090;-79
2022/11/11 12:00:48;;;;;;;19.33;10.40;;;;;;;;;;5026773;28;20061;-79
2022/11/11 12:03:33;;;;;;;19.88;10.85;;;;;;;;;;5008682;28;20061;-79
2022/11/11 12:06:02;;;;;;;20.00;10.45;;;;;;;;;;5025715;28;20088;-79
2022/11/11 12:08:41;;;;;;;18.52;11.20;;;;;;;;;;5025803;28;20057;-78
2022/11/11 12:11:13;;;;;;;20.17;11.00;;;;;;;;;;5008557;28;20084;-79
2022/11/11 12:13:45;;;;;;;21.98;10.82;;;;;;;;;;5006759;28;20061;-80
2022/11/11 12:16:15;;;;;;;19.45;10.68;;;;;;;;;;5024564;28;20057;-79
2022/11/11 12:18:47;;;;;;;23.40;11.82;;;;;;;;;;5026100;28;20532;-79
2022/11/11 12:21:14;;;;;;;20.90;10.65;;;;;;;;;;5024987;28;20058;-79
2022/11/11 12:23:57;;;;;;;20.90;10.32;;;;;;;;;;5015710;28;20070;-80
2022/11/11 12:26:38;;;;;;;19.20;10.63;;;;;;;;;;5010715;28;20062;-80
2022/11/11 12:29:04;;;;;;;19.75;11.18;;;;;;;;;;5025144;28;20084;-80
2022/11/11 12:31:37;;;;;;;20.77;10.75;;;;;;;;;;5004032;28;20489;-77
2022/11/11 12:34:09;;;;;;;20.25;11.20;;;;;;;;;;5026718;28;20066;-80
2022/11/11 12:36:46;;;;;;;19.17;10.65;;;;;;;;;;5027046;28;20058;-80
2022/11/11 12:39:24;;;;;;;20.50;10.85;;;;;;;;;;5028356;28;20057;-80
2022/11/11 12:42:09;;;;;;;17.88;10.73;;;;;;;;;;5027853;28;20054;-80
2022/11/11 12:44:54;;;;;;;22.55;10.55;;;;;;;;;;4992891;28;20054;-80
2022/11/11 12:47:24;;;;;;;17.75;10.35;;;;;;;;;;5008276;28;20085;-80
2022/11/11 12:49:59;;;;;;;17.63;9.82;;;;;;;;;;4993838;28;20524;-79
2022/11/11 12:52:44;;;;;;;16.88;9.98;;;;;;;;;;5002408;28;20049;-79
2022/11/11 12:55:23;;;;;;;17.40;9.73;;;;;;;;;;5024438;28;20476;-80
2022/11/11 12:57:55;;;;;;;20.38;9.52;;;;;;;;;;5009228;28;20077;-80
2022/11/11 13:00:23;;;;;;;19.85;10.13;;;;;;;;;;5009166;28;20050;-80
2022/11/11 13:02:58;;;;;;;20.15;9.63;;;;;;;;;;5008572;28;20038;-80
2022/11/11 13:05:33;;;;;;;18.20;9.60;;;;;;;;;;5024036;28;20069;-80
2022/11/11 13:08:07;;;;;;;22.08;9.18;;;;;;;;;;5012075;28;20054;-80
2022/11/11 13:10:37;;;;;;;17.55;9.75;;;;;;;;;;5002928;28;20061;-80
2022/11/11 13:13:03;;;;;;;19.13;9.52;;;;;;;;;;5029890;28;20065;-80
2022/11/11 13:15:29;;;;;;;17.15;8.90;;;;;;;;;;5030710;28;20061;-80
2022/11/11 13:17:58;;;;;;;17.35;8.73;;;;;;;;;;5013362;28;20053;-80
2022/11/11 13:20:49;;;;;;;20.08;8.25;;;;;;;;;;5010175;28;20092;-78
2022/11/11 13:23:15;;;;;;;;;;;;;;;;;;5029039;28;20050;-79
2022/11/11 13:25:47;;;;;;;17.98;8.77;;;;;;;;;;5009617;28;43625;-78
2022/11/11 13:28:18;;;;;;;15.93;8.80;;;;;;;;;;5028450;28;20113;-78
2022/11/11 13:30:47;;;;;;;17.08;8.70;;;;;;;;;;5011796;28;20057;-78
2022/11/11 13:33:16;;;;;;;16.33;8.60;;;;;;;;;;5007154;28;20080;-78
2022/11/11 13:35:57;;;;;;;17.20;8.80;;;;;;;;;;5028165;28;20061;-78
2022/11/11 13:38:28;;;;;;;16.10;8.50;;;;;;;;;;4991009;28;20501;-79
2022/11/11 13:40:57;;;;;;;15.40;8.10;;;;;;;;;;4999238;28;20065;-78
2022/11/11 13:43:28;;;;;;;16.30;9.18;;;;;;;;;;5008158;28;20081;-78
2022/11/11 13:45:56;;;;;;;16.25;8.43;;;;;;;;;;5009406;28;20132;-77
2022/11/11 13:48:36;;;;;;;14.15;8.25;;;;;;;;;;5009176;28;20054;-78
2022/11/11 13:51:24;;;;;;;14.40;8.03;;;;;;;;;;5023746;28;20057;-78
2022/11/11 13:53:51;;;;;;;17.58;8.20;;;;;;;;;;5008530;28;20655;-78
2022/11/11 13:56:26;;;;;;;13.45;7.70;;;;;;;;;;5008237;28;20108;-78
2022/11/11 13:58:53;;;;;;;17.75;7.43;;;;;;;;;;5008696;28;20089;-78
2022/11/11 14:01:20;;;;;;;14.90;7.60;;;;;;;;;;5024716;28;20069;-79
2022/11/11 14:04:06;;;;;;;14.75;7.07;;;;;;;;;;5026152;28;20120;-78
2022/11/11 14:06:32;;;;;;;15.15;7.55;;;;;;;;;;5007245;28;20133;-79
2022/11/11 14:08:59;;;;;;;14.13;7.53;;;;;;;;;;5022291;28;20081;-77
2022/11/11 14:11:25;;;;;;;18.10;7.60;;;;;;;;;;5025686;28;20161;-79
2022/11/11 14:13:52;;;;;;;12.80;6.45;;;;;;;;;;5008928;28;20058;-79
2022/11/11 14:16:34;;;;;;;16.75;6.93;;;;;;;;;;5025796;28;20053;-78
2022/11/11 14:19:26;;;;;;;13.40;6.07;;;;;;;;;;5018710;28;20056;-78
2022/11/11 14:21:54;;;;;;;17.38;6.88;;;;;;;;;;5004166;28;20050;-78
2022/11/11 14:24:30;;;;;;;12.32;6.32;;;;;;;;;;5007032;28;20169;-78
2022/11/11 14:26:58;;;;;;;13.15;6.85;;;;;;;;;;5024281;28;20050;-78
2022/11/11 14:29:33;;;;;;;16.15;6.65;;;;;;;;;;5008690;28;20058;-78
2022/11/11 14:32:26;;;;;;;12.13;6.78;;;;;;;;;;5008966;28;20050;-78
2022/11/11 14:34:58;;;;;;;16.05;6.55;;;;;;;;;;4974891;28;20049;-78
2022/11/11 14:37:37;;;;;;;16.88;7.25;;;;;;;;;;5025258;28;20124;-79
2022/11/11 14:40:08;;;;;;;13.63;7.10;;;;;;;;;;5020920;28;20049;-79
2022/11/11 14:42:34;;;;;;;14.80;6.57;;;;;;;;;;5019046;28;20058;-79
2022/11/11 14:45:01;;;;;;;13.13;6.78;;;;;;;;;;5025215;28;20054;-77
2022/11/11 14:47:39;;;;;;;11.70;6.72;;;;;;;;;;5021874;28;20128;-77
2022/11/11 14:50:25;;;;;;;12.00;6.85;;;;;;;;;;5026629;28;20081;-78
2022/11/11 14:52:53;;;;;;;13.40;6.80;;;;;;;;;;5024190;28;20716;-78
2022/11/11 14:55:33;;;;;;;19.33;6.82;;;;;;;;;;5023785;28;20436;-78
2022/11/11 14:58:04;;;;;;;13.52;6.38;;;;;;;;;;5024387;28;20517;-78
2022/11/11 15:00:32;;;;;;;13.40;6.13;;;;;;;;;;5024665;28;20065;-78
2022/11/11 15:03:14;;;;;;;12.68;6.55;;;;;;;;;;5008373;28;20053;-78
2022/11/11 15:05:47;;;;;;;13.75;5.90;;;;;;;;;;5007584;28;20062;-78
2022/11/11 15:08:22;;;;;;;11.13;6.05;;;;;;;;;;5004787;28;20050;-78
2022/11/11 15:11:00;;;;;;;13.00;5.72;;;;;;;;;;5030278;28;21267;-78
2022/11/11 15:13:29;;;;;;;10.50;5.40;;;;;;;;;;5006838;28;20034;-77
2022/11/11 15:15:59;;;;;;;11.35;6.00;;;;;;;;;;5020631;28;20811;-78
2022/11/11 15:18:37;;;;;;;13.10;5.80;;;;;;;;;;5019733;28;20058;-79
2022/11/11 15:21:10;;;;;;;11.52;5.60;;;;;;;;;;5020757;28;20517;-79
2022/11/11 15:23:39;;;;;;;11.48;5.45;;;;;;;;;;5020858;28;20413;-79
2022/11/11 15:26:08;;;;;;;15.23;5.90;;;;;;;;;;5023038;28;20141;-77
2022/11/11 15:28:57;;;;;;;13.55;5.93;;;;;;;;;;5023973;28;20058;-77
2022/11/11 15:31:40;;;;;;;13.57;5.50;;;;;;;;;;5023344;28;20058;-78
2022/11/11 15:34:12;;;;;;;13.93;5.95;;;;;;;;;;5004226;28;20057;-78
2022/11/11 15:36:38;;;;;;;12.80;5.28;;;;;;;;;;5005959;28;20050;-79
2022/11/11 15:39:08;;;;;;;13.45;5.78;;;;;;;;;;5003470;28;20505;-78
2022/11/11 15:41:37;;;;;;;10.75;5.63;;;;;;;;;;5020177;28;20050;-78
2022/11/11 15:44:08;;;;;;;13.82;5.35;;;;;;;;;;5023143;28;20058;-79
2022/11/11 15:46:37;;;;;;;11.88;5.55;;;;;;;;;;5022402;28;20057;-78
2022/11/11 15:49:03;;;;;;;10.98;5.40;;;;;;;;;;5005630;28;20050;-77
2022/11/11 15:51:32;;;;;;;12.45;5.45;;;;;;;;;;5002819;28;20054;-78
2022/11/11 15:54:17;;;;;;;13.07;5.63;;;;;;;;;;5023232;28;20679;-79
2022/11/11 15:56:44;;;;;;;12.32;5.43;;;;;;;;;;5007645;28;20056;-78
2022/11/11 15:59:23;;;;;;;14.45;5.82;;;;;;;;;;5025462;28;20065;-79
2022/11/11 16:01:53;;;;;;;15.15;6.20;;;;;;;;;;5024038;28;20065;-78
2022/11/11 16:04:21;;;;;;;18.83;7.25;;;;;;;;;;5008375;28;20061;-79